Terminal Aerodrome Forecast
Issued by NWS

Home | Current Version | Previous Version | Text Only | Print | Product List | Glossary On
Versions: 1 2 3 4 5 6 7 8 9 10 11 12 13 14 15 16 17 18 19 20 21 22 23 24 25
908
FTUS46 KLOX 261140
TAFLAX
TAF
KLAX 261140Z 2612/2718 08005KT P6SM SKC
     FM261600 VRB03KT P6SM SKC
     FM261900 26012KT P6SM SKC
     FM270500 VRB03KT P6SM SKC
     FM271200 VRB03KT 5SM HZ BKN015
     FM271500 VRB03KT 5SM HZ SCT015
     FM271700 27006KT P6SM SKC=

USA.gov is the U.S. government's official web portal to all federal, state and local government web resources and services.